• Join FlightAware (Why Join?)
  • Login
  • US Flag 
08:06PM EDT


 

Airport Tracker/Info


-or-


 

Live Flight TrackerFlight Track Log ✈ LOF3416 ✈ 11-Jul-2013 ✈ KSGF - KORD

Flight Track Log - Related Links

Times and Time Zones

All times are in EDT time to prevent confusion due to time zone crossing. See the LOF3416 flight status page for this flight to view local times or setup timezone preferences in your user account.

Time Position Orientation Groundspeed Altitude Reporting Facility
EDT Latitude Longitude Course Direction KTS MPH feet Rate Location/Type
07:41PM 37.3422 -93.3161 36° Northeast 219 252 5,300  Level Kansas City Center
07:42PM 37.3947 -93.2697 35° Northeast 223 257 7,300 1,980 Climbing Kansas City Center
07:43PM 37.4522 -93.2181 35° Northeast 246 283 9,400 1,920 Climbing Kansas City Center
07:44PM 37.5122 -93.1625 36° Northeast 261 300 11,300 1,380 Climbing Kansas City Center
07:45PM 37.6411 -93.0203 35° Northeast  Level FlightAware Approximate
07:45PM 37.5792 -93.1000 36° Northeast 290 334 12,300  Level Kansas City Center
07:46PM 37.6544 -93.0314 36° Northeast 315 362 13,400 1,320 Climbing Kansas City Center
07:47PM 37.7506 -92.9428 36° Northeast 338 389 15,100 1,500 Climbing Kansas City Center
07:48PM 37.8311 -92.8689 36° Northeast 352 405 16,600 1,320 Climbing Kansas City Center
07:49PM 37.9111 -92.7947 36° Northeast 354 407 17,900 1,140 Climbing Kansas City Center
07:50PM 37.9881 -92.7231 36° Northeast 356 410 19,000 960 Climbing Kansas City Center
07:51PM 38.0714 -92.6456 36° Northeast 367 422 20,000 960 Climbing Kansas City Center
07:52PM 38.1572 -92.5661 36° Northeast 379 436 21,000 960 Climbing Kansas City Center
07:53PM 38.2522 -92.4783 36° Northeast 386 444 22,100 1,200 Climbing Kansas City Center
07:54PM 38.3389 -92.3967 36° Northeast 386 444 23,500 1,380 Climbing Kansas City Center
07:55PM 38.4233 -92.3167 37° Northeast 379 436 25,000 1,260 Climbing Kansas City Center
07:56PM 38.5228 -92.2217 37° Northeast 372 428 26,200 960 Climbing Kansas City Center
07:57PM 38.6083 -92.1417 36° Northeast 376 433 27,000 360 Climbing Kansas City Center
07:58PM 38.6958 -92.0569 37° Northeast 387 445 27,000  Level Kansas City Center
07:59PM 38.7892 -91.9686 36° Northeast 408 470 27,000  Level Kansas City Center
08:01PM 38.8853 -91.8781 36° Northeast 422 486 27,000  Level Kansas City Center
08:02PM 39.0028 -91.7661 37° Northeast 434 499 27,000  Level Kansas City Center
08:03PM 39.0883 -91.6850 36° Northeast 434 499 27,000  Level Kansas City Center
08:04PM 39.1853 -91.5919 37° Northeast 433 498 27,000  Level Kansas City Center
08:05PM 39.2822 -91.4981 37° Northeast 434 499 27,000  Level Kansas City Center
08:06PM 39.4003 -91.3831 37° Northeast 441 507 27,000  Level Kansas City Center
08:07PM 39.4972 -91.2889 37° Northeast 436 502 27,000  Level Kansas City Center
08:08PM 39.5936 -91.1936 37° Northeast 436 502 27,000  Level Kansas City Center
08:09PM 39.6908 -91.0983 37° Northeast 436 502 27,000  Level Kansas City Center
08:10PM 39.7967 -90.9914 38° Northeast 433 498 27,000  Level Kansas City Center
08:11PM 39.8897 -90.8997 37° Northeast 437 503 27,000  Level Kansas City Center
08:12PM 39.9856 -90.8039 37° Northeast 436 502 27,000  Level Kansas City Center
08:13PM 40.0806 -90.7053 38° Northeast 435 501 27,000  Level Kansas City Center
08:14PM 40.1761 -90.6078 38° Northeast 435 501 27,000  Level Kansas City Center
08:15PM 40.2911 -90.4917 38° Northeast 435 501 27,000  Level Kansas City Center
08:16PM 40.3864 -90.3931 38° Northeast 435 501 27,000  Level Kansas City Center
08:17PM 40.5017 -90.2756 38° Northeast 435 501 27,000  Level Chicago Center
08:18PM 40.6011 -90.1725 38° Northeast 440 506 27,000 -420 Level Chicago Center
08:19PM 40.6956 -90.0758 38° Northeast 435 501 26,200 -840 Descending Chicago Center
08:20PM 40.7864 -89.9761 40° Northeast 429 494 25,300 -840 Descending Chicago Center
08:21PM 40.8872 -89.8744 37° Northeast 445 512 24,500 -660 Descending Chicago Center
08:22PM 40.9706 -89.7214 54° Northeast 430 495 24,000 -240 Descending Chicago Center
08:23PM 41.0306 -89.6114 54° Northeast 422 486 24,000 -300 Level Chicago Center
08:24PM 41.1147 -89.4547 54° Northeast 432 497 23,500 -900 Descending Chicago Center
08:25PM 41.1844 -89.3267 54° Northeast 428 493 22,200 -1,500 Descending Chicago Center
08:27PM 41.2519 -89.1997 55° Northeast 421 484 20,400 -2,100 Descending Chicago Center
08:28PM 41.3225 -89.0650 55° Northeast 409 471 17,900 -2,520 Descending Chicago Center
08:29PM 41.3864 -88.9453 55° Northeast 401 461 15,300 -2,580 Descending Chicago Center
08:30PM 41.4450 -88.8339 55° Northeast 371 427 12,600 -2,100 Descending Chicago Center
08:31PM 41.4986 -88.7328 55° Northeast 337 388 11,000 -780 Descending Chicago Center
08:32PM 41.5356 -88.6497 59° Northeast 262 302 11,000  Level Chicago Center
08:33PM 41.5717 -88.5544 63° Northeast 244 281 11,000 -600 Level Chicago Center
08:34PM 41.5992 -88.4714 66° East 245 282 9,800 -1,200 Descending Chicago Center
08:35PM 41.6247 -88.3919 67° East 236 272 8,600 -900 Descending Chicago Center
08:36PM 41.6506 -88.3164 65° Northeast 225 259 8,000 -300 Descending Chicago Center
08:37PM 41.6731 -88.2494 66° East 200 230 8,000  Level Chicago Center
08:38PM 41.7003 -88.1894 59° Northeast 192 221 8,000 -660 Level Chicago Center
08:39PM 41.7536 -88.1369 36° Northeast 198 228 6,700 -1,320 Descending Chicago Center
08:40PM 41.7925 -88.0869 44° Northeast 195 224 5,300 -1,380 Descending Chicago Center
08:41PM 41.8353 -88.0411 39° Northeast 197 227 3,900 -1,260 Descending Chicago Center
08:42PM 41.8739 -87.9931 43° Northeast 192 221 2,800 -1,020 Descending Chicago Center
08:43PM 41.9053 -87.9550 42° Northeast 168 193 1,900 -780 Descending Chicago Center
08:44PM 41.9333 -87.9167 45° Northeast 129 148 1,100 -720 Descending Chicago TRACON
08:46PM 41.9667 -87.9000 37° Northeast  Level FlightAware Approximate
08:53PM 41.9817 -87.9067 37° Northeast  Level Estimated